createdAt,value
2023-05-01T00:02:28.065Z,2.63
2023-05-01T00:04:56.039Z,2.90
2023-05-01T00:07:25.543Z,2.72
2023-05-01T00:09:53.338Z,2.42
2023-05-01T00:12:21.353Z,2.20
2023-05-01T00:14:49.230Z,2.60
2023-05-01T00:17:17.105Z,2.50
2023-05-01T00:19:44.958Z,2.92
2023-05-01T00:22:12.752Z,2.50
2023-05-01T00:24:41.921Z,2.72
2023-05-01T00:27:09.763Z,2.72
2023-05-01T00:29:38.207Z,2.70
2023-05-01T00:32:07.231Z,3.00
2023-05-01T00:34:35.236Z,3.08
2023-05-01T00:37:03.074Z,2.25
2023-05-01T00:39:31.004Z,2.47
2023-05-01T00:42:00.313Z,2.63
2023-05-01T00:46:56.500Z,2.40
2023-05-01T00:49:24.447Z,2.92
2023-05-01T00:51:54.225Z,2.35
2023-05-01T00:54:23.158Z,2.42
2023-05-01T00:56:52.150Z,2.90
2023-05-01T00:59:21.483Z,2.28
2023-05-01T06:09:03.272Z,5.55
2023-05-01T06:11:31.273Z,5.00
2023-05-01T06:13:59.889Z,3.88
2023-05-01T06:16:28.330Z,3.17
2023-05-01T06:18:56.349Z,3.13
2023-05-01T06:21:24.344Z,2.88
2023-05-01T06:23:52.338Z,2.50
2023-05-01T06:26:35.561Z,2.50
2023-05-01T06:34:00.523Z,2.40
2023-05-01T06:36:33.273Z,2.33
2023-05-01T06:39:01.141Z,2.13
2023-05-01T06:41:29.091Z,2.20
2023-05-01T06:43:58.539Z,2.05
2023-05-01T06:46:26.438Z,2.00
2023-05-01T06:48:54.347Z,2.28
2023-05-01T06:51:22.185Z,1.80
2023-05-01T06:53:50.030Z,1.67
2023-05-01T06:56:17.896Z,1.67
2023-05-01T06:58:45.687Z,1.70
2023-05-01T07:01:14.965Z,1.73
